sensor_id;sensor_type;location;lat;lon;timestamp;noise_LAeq;noise_LA_min;noise_LA_max;noise_LA01;noise_LA95
48148;Laerm;29352;48.708;9.290;2023-05-16T00:01:33;72.40;15.00;96.22;;
48148;Laerm;29352;48.708;9.290;2023-05-16T00:03:59;73.35;15.00;96.22;;
48148;Laerm;29352;48.708;9.290;2023-05-16T00:06:25;73.05;15.00;96.22;;
48148;Laerm;29352;48.708;9.290;2023-05-16T00:08:50;68.58;15.00;96.22;;
48148;Laerm;29352;48.708;9.290;2023-05-16T00:11:17;69.52;15.00;96.21;;
48148;Laerm;29352;48.708;9.290;2023-05-16T00:13:43;63.77;15.00;93.72;;
48148;Laerm;29352;48.708;9.290;2023-05-16T00:16:08;65.97;15.00;96.21;;
48148;Laerm;29352;48.708;9.290;2023-05-16T00:18:34;62.59;15.00;96.21;;
48148;Laerm;29352;48.708;9.290;2023-05-16T00:21:04;62.59;15.00;96.22;;
48148;Laerm;29352;48.708;9.290;2023-05-16T00:23:31;63.27;15.00;96.21;;
48148;Laerm;29352;48.708;9.290;2023-05-16T00:25:57;15.00;15.00;15.00;;
48148;Laerm;29352;48.708;9.290;2023-05-16T00:28:22;52.76;15.00;84.18;;
48148;Laerm;29352;48.708;9.290;2023-05-16T00:30:48;63.78;15.00;96.21;;
48148;Laerm;29352;48.708;9.290;2023-05-16T00:33:13;47.65;15.00;83.84;;
48148;Laerm;29352;48.708;9.290;2023-05-16T00:35:39;65.57;15.00;96.22;;
48148;Laerm;29352;48.708;9.290;2023-05-16T00:38:05;66.43;15.00;96.22;;
48148;Laerm;29352;48.708;9.290;2023-05-16T00:40:31;66.66;15.00;96.21;;
48148;Laerm;29352;48.708;9.290;2023-05-16T00:42:57;67.50;15.00;96.22;;
48148;Laerm;29352;48.708;9.290;2023-05-16T00:45:23;70.21;15.00;96.22;;
48148;Laerm;29352;48.708;9.290;2023-05-16T00:47:50;66.14;15.00;96.21;;
48148;Laerm;29352;48.708;9.290;2023-05-16T00:50:17;66.31;15.00;96.21;;
48148;Laerm;29352;48.708;9.290;2023-05-16T00:52:43;71.02;15.00;96.22;;
48148;Laerm;29352;48.708;9.290;2023-05-16T00:55:09;70.92;15.00;96.22;;
48148;Laerm;29352;48.708;9.290;2023-05-16T00:57:37;73.36;15.00;96.22;;
48148;Laerm;29352;48.708;9.290;2023-05-16T01:00:05;73.67;15.00;96.22;;
48148;Laerm;29352;48.708;9.290;2023-05-16T01:02:33;76.02;15.00;96.72;;
48148;Laerm;29352;48.708;9.290;2023-05-16T01:04:59;77.37;15.00;99.22;;
48148;Laerm;29352;48.708;9.290;2023-05-16T01:07:25;76.70;15.00;96.22;;
48148;Laerm;29352;48.708;9.290;2023-05-16T01:09:51;75.10;15.00;96.22;;
48148;Laerm;29352;48.708;9.290;2023-05-16T01:12:44;75.81;15.00;96.22;;
48148;Laerm;29352;48.708;9.290;2023-05-16T01:15:27;78.20;15.00;96.22;;
48148;Laerm;29352;48.708;9.290;2023-05-16T01:18:04;76.21;15.00;96.22;;
48148;Laerm;29352;48.708;9.290;2023-05-16T01:23:39;73.90;15.00;96.22;;
48148;Laerm;29352;48.708;9.290;2023-05-16T01:28:43;71.53;15.00;96.22;;
48148;Laerm;29352;48.708;9.290;2023-05-16T01:31:09;73.08;15.00;96.22;;
48148;Laerm;29352;48.708;9.290;2023-05-16T01:33:35;66.96;15.00;96.22;;
48148;Laerm;29352;48.708;9.290;2023-05-16T01:39:05;66.88;15.00;96.21;;
48148;Laerm;29352;48.708;9.290;2023-05-16T01:42:04;67.02;15.00;96.21;;
48148;Laerm;29352;48.708;9.290;2023-05-16T01:47:16;67.29;15.00;96.21;;
48148;Laerm;29352;48.708;9.290;2023-05-16T01:50:13;71.09;15.00;96.21;;
48148;Laerm;29352;48.708;9.290;2023-05-16T01:55:21;68.41;15.00;96.21;;
48148;Laerm;29352;48.708;9.290;2023-05-16T01:57:51;70.73;15.00;96.22;;
48148;Laerm;29352;48.708;9.290;2023-05-16T02:00:16;70.48;15.00;96.22;;
48148;Laerm;29352;48.708;9.290;2023-05-16T02:02:42;65.69;15.00;93.72;;
48148;Laerm;29352;48.708;9.290;2023-05-16T02:05:07;68.01;15.00;96.21;;
48148;Laerm;29352;48.708;9.290;2023-05-16T02:07:33;63.99;15.00;93.71;;
48148;Laerm;29352;48.708;9.290;2023-05-16T02:09:59;70.21;15.00;96.22;;
48148;Laerm;29352;48.708;9.290;2023-05-16T02:12:24;70.05;15.00;96.22;;
48148;Laerm;29352;48.708;9.290;2023-05-16T02:14:50;70.56;15.00;96.22;;
48148;Laerm;29352;48.708;9.290;2023-05-16T02:17:15;71.51;15.00;96.22;;
48148;Laerm;29352;48.708;9.290;2023-05-16T02:19:40;72.90;15.00;97.18;;
48148;Laerm;29352;48.708;9.290;2023-05-16T02:22:06;72.97;15.00;96.22;;
48148;Laerm;29352;48.708;9.290;2023-05-16T02:24:31;71.99;15.00;96.22;;
48148;Laerm;29352;48.708;9.290;2023-05-16T02:26:57;72.28;15.00;96.22;;
48148;Laerm;29352;48.708;9.290;2023-05-16T02:29:22;70.11;15.00;96.22;;
48148;Laerm;29352;48.708;9.290;2023-05-16T02:31:48;75.63;15.00;96.22;;
48148;Laerm;29352;48.708;9.290;2023-05-16T02:34:13;77.49;15.00;97.18;;
48148;Laerm;29352;48.708;9.290;2023-05-16T02:36:39;74.66;15.00;96.22;;
48148;Laerm;29352;48.708;9.290;2023-05-16T02:39:05;77.47;15.00;97.18;;
48148;Laerm;29352;48.708;9.290;2023-05-16T02:41:31;76.01;15.00;96.22;;
48148;Laerm;29352;48.708;9.290;2023-05-16T02:43:57;77.46;15.00;96.22;;
48148;Laerm;29352;48.708;9.290;2023-05-16T02:46:33;77.96;15.00;98.16;;
48148;Laerm;29352;48.708;9.290;2023-05-16T02:48:59;79.18;15.00;98.15;;
48148;Laerm;29352;48.708;9.290;2023-05-16T02:51:27;80.57;15.00;98.15;;
48148;Laerm;29352;48.708;9.290;2023-05-16T02:53:53;80.76;15.00;96.22;;
48148;Laerm;29352;48.708;9.290;2023-05-16T02:56:21;79.58;15.00;98.15;;
48148;Laerm;29352;48.708;9.290;2023-05-16T02:58:48;76.97;15.00;96.22;;
48148;Laerm;29352;48.708;9.290;2023-05-16T03:01:15;77.81;15.00;96.22;;
48148;Laerm;29352;48.708;9.290;2023-05-16T03:03:41;76.90;15.00;97.18;;
48148;Laerm;29352;48.708;9.290;2023-05-16T03:06:07;76.35;15.00;96.22;;
48148;Laerm;29352;48.708;9.290;2023-05-16T03:08:33;76.72;15.00;96.22;;
48148;Laerm;29352;48.708;9.290;2023-05-16T03:10:59;76.19;15.00;96.22;;
48148;Laerm;29352;48.708;9.290;2023-05-16T03:13:25;77.85;15.00;96.48;;
48148;Laerm;29352;48.708;9.290;2023-05-16T03:15:51;76.04;15.00;96.22;;
48148;Laerm;29352;48.708;9.290;2023-05-16T03:18:17;80.19;15.00;98.15;;
48148;Laerm;29352;48.708;9.290;2023-05-16T03:20:42;77.14;15.00;96.22;;
48148;Laerm;29352;48.708;9.290;2023-05-16T03:23:08;76.63;15.00;96.22;;
48148;Laerm;29352;48.708;9.290;2023-05-16T03:25:34;75.89;15.00;96.22;;
48148;Laerm;29352;48.708;9.290;2023-05-16T03:28:06;74.77;15.00;96.22;;
48148;Laerm;29352;48.708;9.290;2023-05-16T03:30:33;75.74;15.00;96.22;;
48148;Laerm;29352;48.708;9.290;2023-05-16T03:32:59;74.44;15.00;97.18;;
48148;Laerm;29352;48.708;9.290;2023-05-16T03:35:25;74.78;15.00;96.22;;
48148;Laerm;29352;48.708;9.290;2023-05-16T03:37:51;73.50;15.00;96.22;;
48148;Laerm;29352;48.708;9.290;2023-05-16T03:40:17;74.94;15.00;96.22;;
48148;Laerm;29352;48.708;9.290;2023-05-16T03:42:42;74.72;15.00;98.15;;
48148;Laerm;29352;48.708;9.290;2023-05-16T03:45:08;74.50;15.00;96.22;;
48148;Laerm;29352;48.708;9.290;2023-05-16T03:47:33;74.37;15.00;96.72;;
48148;Laerm;29352;48.708;9.290;2023-05-16T03:49:59;75.68;15.00;96.22;;
48148;Laerm;29352;48.708;9.290;2023-05-16T03:52:25;77.69;15.00;96.47;;
48148;Laerm;29352;48.708;9.290;2023-05-16T03:54:50;76.75;15.00;98.15;;
48148;Laerm;29352;48.708;9.290;2023-05-16T03:57:16;78.29;15.00;96.48;;
48148;Laerm;29352;48.708;9.290;2023-05-16T03:59:41;75.66;15.00;96.72;;
48148;Laerm;29352;48.708;9.290;2023-05-16T04:02:07;75.77;15.00;96.22;;
48148;Laerm;29352;48.708;9.290;2023-05-16T04:04:33;75.02;15.00;96.72;;
48148;Laerm;29352;48.708;9.290;2023-05-16T04:07:00;76.89;15.00;96.22;;
48148;Laerm;29352;48.708;9.290;2023-05-16T04:09:26;78.89;15.00;97.18;;
48148;Laerm;29352;48.708;9.290;2023-05-16T04:11:52;75.49;15.00;96.49;;
48148;Laerm;29352;48.708;9.290;2023-05-16T04:14:17;76.87;15.00;96.22;;
48148;Laerm;29352;48.708;9.290;2023-05-16T04:16:42;76.00;15.00;96.48;;
48148;Laerm;29352;48.708;9.290;2023-05-16T04:19:08;77.70;15.00;98.15;;
48148;Laerm;29352;48.708;9.290;2023-05-16T04:21:33;79.14;15.00;98.15;;
48148;Laerm;29352;48.708;9.290;2023-05-16T04:24:00;79.22;15.00;96.48;;
48148;Laerm;29352;48.708;9.290;2023-05-16T04:26:26;79.37;15.00;97.81;;
48148;Laerm;29352;48.708;9.290;2023-05-16T04:28:52;78.59;15.00;99.22;;
48148;Laerm;29352;48.708;9.290;2023-05-16T04:31:17;78.21;15.00;97.15;;
48148;Laerm;29352;48.708;9.290;2023-05-16T04:33:43;79.08;15.00;98.15;;
48148;Laerm;29352;48.708;9.290;2023-05-16T04:36:08;79.35;15.00;98.15;;
48148;Laerm;29352;48.708;9.290;2023-05-16T04:38:34;81.11;15.00;98.30;;
48148;Laerm;29352;48.708;9.290;2023-05-16T04:40:59;77.97;15.00;97.18;;
48148;Laerm;29352;48.708;9.290;2023-05-16T04:43:26;78.43;15.00;96.22;;
48148;Laerm;29352;48.708;9.290;2023-05-16T04:45:51;78.67;15.00;98.15;;
48148;Laerm;29352;48.708;9.290;2023-05-16T04:48:18;77.99;15.00;96.48;;
48148;Laerm;29352;48.708;9.290;2023-05-16T04:50:44;79.10;15.00;96.22;;
48148;Laerm;29352;48.708;9.290;2023-05-16T04:53:10;79.43;15.00;98.15;;
48148;Laerm;29352;48.708;9.290;2023-05-16T04:55:36;80.15;15.00;96.47;;
48148;Laerm;29352;48.708;9.290;2023-05-16T04:58:01;80.29;15.00;98.15;;
48148;Laerm;29352;48.708;9.290;2023-05-16T05:00:27;82.83;15.00;98.15;;
48148;Laerm;29352;48.708;9.290;2023-05-16T05:02:53;81.14;15.00;99.23;;
48148;Laerm;29352;48.708;9.290;2023-05-16T05:05:18;81.40;15.00;99.22;;
48148;Laerm;29352;48.708;9.290;2023-05-16T05:07:44;82.75;15.00;98.15;;
48148;Laerm;29352;48.708;9.290;2023-05-16T05:10:10;83.41;15.00;98.15;;
48148;Laerm;29352;48.708;9.290;2023-05-16T05:12:36;82.52;15.00;98.15;;
48148;Laerm;29352;48.708;9.290;2023-05-16T05:15:03;82.91;15.00;98.15;;
48148;Laerm;29352;48.708;9.290;2023-05-16T05:17:28;82.32;15.00;98.77;;
48148;Laerm;29352;48.708;9.290;2023-05-16T05:19:54;82.87;15.00;98.15;;
48148;Laerm;29352;48.708;9.290;2023-05-16T05:22:19;78.81;15.00;99.23;;
48148;Laerm;29352;48.708;9.290;2023-05-16T05:24:45;80.22;15.00;97.21;;
48148;Laerm;29352;48.708;9.290;2023-05-16T05:27:10;80.45;15.00;98.15;;
48148;Laerm;29352;48.708;9.290;2023-05-16T05:29:36;79.64;15.00;96.55;;
48148;Laerm;29352;48.708;9.290;2023-05-16T05:32:01;79.92;15.00;96.83;;
48148;Laerm;29352;48.708;9.290;2023-05-16T05:34:27;81.43;15.00;98.15;;
48148;Laerm;29352;48.708;9.290;2023-05-16T05:36:52;80.17;15.00;96.72;;
48148;Laerm;29352;48.708;9.290;2023-05-16T05:39:18;81.50;15.00;99.23;;
48148;Laerm;29352;48.708;9.290;2023-05-16T05:41:43;82.46;15.00;99.23;;
48148;Laerm;29352;48.708;9.290;2023-05-16T05:44:09;82.50;15.00;98.15;;
48148;Laerm;29352;48.708;9.290;2023-05-16T05:46:35;83.72;15.00;98.15;;
48148;Laerm;29352;48.708;9.290;2023-05-16T05:49:01;81.96;15.00;98.15;;
48148;Laerm;29352;48.708;9.290;2023-05-16T05:53:53;15.00;15.00;15.00;;
48148;Laerm;29352;48.708;9.290;2023-05-16T05:56:18;15.00;15.00;15.00;;
48148;Laerm;29352;48.708;9.290;2023-05-16T05:58:45;15.00;15.00;15.00;;
48148;Laerm;29352;48.708;9.290;2023-05-16T06:01:10;15.00;15.00;15.00;;
48148;Laerm;29352;48.708;9.290;2023-05-16T06:03:36;15.00;15.00;15.00;;
48148;Laerm;29352;48.708;9.290;2023-05-16T06:06:03;15.00;15.00;15.00;;
48148;Laerm;29352;48.708;9.290;2023-05-16T06:08:29;15.00;15.00;15.00;;
48148;Laerm;29352;48.708;9.290;2023-05-16T06:10:54;15.00;15.00;15.00;;
48148;Laerm;29352;48.708;9.290;2023-05-16T06:13:20;15.00;15.00;15.00;;
48148;Laerm;29352;48.708;9.290;2023-05-16T06:15:52;15.00;15.00;15.00;;
48148;Laerm;29352;48.708;9.290;2023-05-16T06:18:19;15.00;15.00;15.00;;
48148;Laerm;29352;48.708;9.290;2023-05-16T06:20:45;15.00;15.00;15.00;;
48148;Laerm;29352;48.708;9.290;2023-05-16T06:23:11;15.00;15.00;15.00;;
48148;Laerm;29352;48.708;9.290;2023-05-16T06:25:37;15.00;15.00;15.00;;
48148;Laerm;29352;48.708;9.290;2023-05-16T06:28:02;15.00;15.00;15.00;;
48148;Laerm;29352;48.708;9.290;2023-05-16T06:30:28;15.00;15.00;15.00;;
48148;Laerm;29352;48.708;9.290;2023-05-16T06:32:53;15.00;15.00;15.00;;
48148;Laerm;29352;48.708;9.290;2023-05-16T06:35:19;15.00;15.00;15.00;;
48148;Laerm;29352;48.708;9.290;2023-05-16T06:37:44;15.00;15.00;15.00;;
48148;Laerm;29352;48.708;9.290;2023-05-16T06:40:11;15.00;15.00;15.00;;
48148;Laerm;29352;48.708;9.290;2023-05-16T06:42:36;15.00;15.00;15.00;;
48148;Laerm;29352;48.708;9.290;2023-05-16T06:45:02;15.00;15.00;15.00;;
48148;Laerm;29352;48.708;9.290;2023-05-16T06:47:28;15.00;15.00;15.00;;
48148;Laerm;29352;48.708;9.290;2023-05-16T06:49:53;15.00;15.00;15.00;;
48148;Laerm;29352;48.708;9.290;2023-05-16T06:52:20;15.00;15.00;15.00;;
48148;Laerm;29352;48.708;9.290;2023-05-16T06:54:45;15.00;15.00;15.00;;
48148;Laerm;29352;48.708;9.290;2023-05-16T06:57:10;15.00;15.00;15.00;;
48148;Laerm;29352;48.708;9.290;2023-05-16T06:59:37;15.00;15.00;15.00;;
48148;Laerm;29352;48.708;9.290;2023-05-16T07:02:03;15.00;15.00;15.00;;
48148;Laerm;29352;48.708;9.290;2023-05-16T07:04:29;15.00;15.00;15.00;;
48148;Laerm;29352;48.708;9.290;2023-05-16T07:06:54;15.00;15.00;15.00;;
48148;Laerm;29352;48.708;9.290;2023-05-16T07:09:20;15.00;15.00;15.00;;
48148;Laerm;29352;48.708;9.290;2023-05-16T07:11:46;15.00;15.00;15.00;;
48148;Laerm;29352;48.708;9.290;2023-05-16T07:14:11;15.00;15.00;15.00;;
48148;Laerm;29352;48.708;9.290;2023-05-16T07:16:37;15.00;15.00;15.00;;
48148;Laerm;29352;48.708;9.290;2023-05-16T07:19:03;15.00;15.00;15.00;;
48148;Laerm;29352;48.708;9.290;2023-05-16T07:21:28;15.00;15.00;15.00;;
48148;Laerm;29352;48.708;9.290;2023-05-16T07:23:54;15.00;15.00;15.00;;
48148;Laerm;29352;48.708;9.290;2023-05-16T07:26:19;15.00;15.00;15.00;;
48148;Laerm;29352;48.708;9.290;2023-05-16T07:28:48;15.00;15.00;15.00;;
48148;Laerm;29352;48.708;9.290;2023-05-16T07:31:15;15.00;15.00;15.00;;
48148;Laerm;29352;48.708;9.290;2023-05-16T07:33:41;15.00;15.00;15.00;;
48148;Laerm;29352;48.708;9.290;2023-05-16T07:36:07;15.00;15.00;15.00;;
48148;Laerm;29352;48.708;9.290;2023-05-16T07:38:33;15.00;15.00;15.00;;
48148;Laerm;29352;48.708;9.290;2023-05-16T07:40:58;15.00;15.00;15.00;;
48148;Laerm;29352;48.708;9.290;2023-05-16T07:43:24;15.00;15.00;15.00;;
48148;Laerm;29352;48.708;9.290;2023-05-16T07:45:50;15.00;15.00;15.00;;
48148;Laerm;29352;48.708;9.290;2023-05-16T07:48:15;15.00;15.00;15.00;;
48148;Laerm;29352;48.708;9.290;2023-05-16T07:50:42;15.00;15.00;15.00;;
48148;Laerm;29352;48.708;9.290;2023-05-16T07:53:08;15.00;15.00;15.00;;
48148;Laerm;29352;48.708;9.290;2023-05-16T07:55:33;15.00;15.00;15.00;;
48148;Laerm;29352;48.708;9.290;2023-05-16T07:57:59;15.00;15.00;15.00;;
48148;Laerm;29352;48.708;9.290;2023-05-16T08:00:25;15.00;15.00;15.00;;
48148;Laerm;29352;48.708;9.290;2023-05-16T08:02:51;15.00;15.00;15.00;;
48148;Laerm;29352;48.708;9.290;2023-05-16T08:05:16;15.00;15.00;15.00;;
48148;Laerm;29352;48.708;9.290;2023-05-16T08:07:42;15.00;15.00;15.00;;
48148;Laerm;29352;48.708;9.290;2023-05-16T08:10:07;15.00;15.00;15.00;;
48148;Laerm;29352;48.708;9.290;2023-05-16T08:12:33;15.00;15.00;15.00;;
48148;Laerm;29352;48.708;9.290;2023-05-16T08:14:59;15.00;15.00;15.00;;
48148;Laerm;29352;48.708;9.290;2023-05-16T08:17:24;15.00;15.00;15.00;;
48148;Laerm;29352;48.708;9.290;2023-05-16T08:19:50;15.00;15.00;15.00;;
48148;Laerm;29352;48.708;9.290;2023-05-16T08:22:15;15.00;15.00;15.00;;
48148;Laerm;29352;48.708;9.290;2023-05-16T08:24:40;15.00;15.00;15.00;;
48148;Laerm;29352;48.708;9.290;2023-05-16T08:27:06;15.00;15.00;15.00;;
48148;Laerm;29352;48.708;9.290;2023-05-16T08:29:32;15.00;15.00;15.00;;
48148;Laerm;29352;48.708;9.290;2023-05-16T08:31:58;15.00;15.00;15.00;;
48148;Laerm;29352;48.708;9.290;2023-05-16T08:34:23;15.00;15.00;15.00;;
48148;Laerm;29352;48.708;9.290;2023-05-16T08:36:49;15.00;15.00;15.00;;
48148;Laerm;29352;48.708;9.290;2023-05-16T08:39:14;15.00;15.00;15.00;;
48148;Laerm;29352;48.708;9.290;2023-05-16T08:41:40;15.00;15.00;15.00;;
48148;Laerm;29352;48.708;9.290;2023-05-16T08:44:06;15.00;15.00;15.00;;
48148;Laerm;29352;48.708;9.290;2023-05-16T08:46:32;15.00;15.00;15.00;;
48148;Laerm;29352;48.708;9.290;2023-05-16T08:49:03;15.00;15.00;15.00;;
48148;Laerm;29352;48.708;9.290;2023-05-16T08:51:32;15.00;15.00;15.00;;
48148;Laerm;29352;48.708;9.290;2023-05-16T08:54:05;15.00;15.00;15.00;;
48148;Laerm;29352;48.708;9.290;2023-05-16T08:56:36;15.00;15.00;15.00;;
48148;Laerm;29352;48.708;9.290;2023-05-16T08:59:03;15.00;15.00;15.00;;
48148;Laerm;29352;48.708;9.290;2023-05-16T09:01:29;15.00;15.00;15.00;;
48148;Laerm;29352;48.708;9.290;2023-05-16T09:03:57;15.00;15.00;15.00;;
48148;Laerm;29352;48.708;9.290;2023-05-16T09:06:24;15.00;15.00;15.00;;
48148;Laerm;29352;48.708;9.290;2023-05-16T09:08:51;15.00;15.00;15.00;;
48148;Laerm;29352;48.708;9.290;2023-05-16T09:11:18;15.00;15.00;15.00;;
48148;Laerm;29352;48.708;9.290;2023-05-16T09:13:43;15.00;15.00;15.00;;
48148;Laerm;29352;48.708;9.290;2023-05-16T09:16:19;15.00;15.00;15.00;;
48148;Laerm;29352;48.708;9.290;2023-05-16T09:18:57;15.00;15.00;15.00;;
48148;Laerm;29352;48.708;9.290;2023-05-16T09:21:29;15.00;15.00;15.00;;
48148;Laerm;29352;48.708;9.290;2023-05-16T09:24:04;15.00;15.00;15.00;;
48148;Laerm;29352;48.708;9.290;2023-05-16T09:26:37;15.00;15.00;15.00;;
48148;Laerm;29352;48.708;9.290;2023-05-16T09:29:11;15.00;15.00;15.00;;
48148;Laerm;29352;48.708;9.290;2023-05-16T09:31:37;15.00;15.00;15.00;;
48148;Laerm;29352;48.708;9.290;2023-05-16T09:34:07;15.00;15.00;15.00;;
48148;Laerm;29352;48.708;9.290;2023-05-16T09:36:33;15.00;15.00;15.00;;
48148;Laerm;29352;48.708;9.290;2023-05-16T09:38:59;15.00;15.00;15.00;;
48148;Laerm;29352;48.708;9.290;2023-05-16T09:41:25;15.00;15.00;15.00;;
48148;Laerm;29352;48.708;9.290;2023-05-16T09:43:51;15.00;15.00;15.00;;
48148;Laerm;29352;48.708;9.290;2023-05-16T09:46:16;15.00;15.00;15.00;;
48148;Laerm;29352;48.708;9.290;2023-05-16T09:48:46;15.00;15.00;15.00;;
48148;Laerm;29352;48.708;9.290;2023-05-16T09:51:13;15.00;15.00;15.00;;
48148;Laerm;29352;48.708;9.290;2023-05-16T09:53:40;15.00;15.00;15.00;;
48148;Laerm;29352;48.708;9.290;2023-05-16T09:56:13;15.00;15.00;15.00;;
48148;Laerm;29352;48.708;9.290;2023-05-16T09:58:43;15.00;15.00;15.00;;
48148;Laerm;29352;48.708;9.290;2023-05-16T10:01:10;15.00;15.00;15.00;;
48148;Laerm;29352;48.708;9.290;2023-05-16T10:03:38;15.00;15.00;15.00;;
48148;Laerm;29352;48.708;9.290;2023-05-16T10:06:06;15.00;15.00;15.00;;
48148;Laerm;29352;48.708;9.290;2023-05-16T10:08:34;15.00;15.00;15.00;;
48148;Laerm;29352;48.708;9.290;2023-05-16T10:11:04;15.00;15.00;15.00;;
48148;Laerm;29352;48.708;9.290;2023-05-16T10:13:35;15.00;15.00;15.00;;
48148;Laerm;29352;48.708;9.290;2023-05-16T10:16:09;15.00;15.00;15.00;;
48148;Laerm;29352;48.708;9.290;2023-05-16T10:18:39;15.00;15.00;15.00;;
48148;Laerm;29352;48.708;9.290;2023-05-16T10:21:10;15.00;15.00;15.00;;
48148;Laerm;29352;48.708;9.290;2023-05-16T10:23:42;15.00;15.00;15.00;;
48148;Laerm;29352;48.708;9.290;2023-05-16T10:26:10;15.00;15.00;15.00;;
48148;Laerm;29352;48.708;9.290;2023-05-16T10:28:39;15.00;15.00;15.00;;
48148;Laerm;29352;48.708;9.290;2023-05-16T10:31:09;15.00;15.00;15.00;;
48148;Laerm;29352;48.708;9.290;2023-05-16T10:33:35;15.00;15.00;15.00;;
48148;Laerm;29352;48.708;9.290;2023-05-16T10:36:01;15.00;15.00;15.00;;
48148;Laerm;29352;48.708;9.290;2023-05-16T10:38:30;15.00;15.00;15.00;;
48148;Laerm;29352;48.708;9.290;2023-05-16T10:40:57;15.00;15.00;15.00;;
48148;Laerm;29352;48.708;9.290;2023-05-16T10:43:29;15.00;15.00;15.00;;
48148;Laerm;29352;48.708;9.290;2023-05-16T10:46:02;15.00;15.00;15.00;;
48148;Laerm;29352;48.708;9.290;2023-05-16T10:50:55;15.00;15.00;15.00;;
48148;Laerm;29352;48.708;9.290;2023-05-16T10:58:24;15.00;15.00;15.00;;
48148;Laerm;29352;48.708;9.290;2023-05-16T11:06:45;15.00;15.00;15.00;;
48148;Laerm;29352;48.708;9.290;2023-05-16T11:14:38;15.00;15.00;15.00;;
48148;Laerm;29352;48.708;9.290;2023-05-16T11:19:41;15.00;15.00;15.00;;
48148;Laerm;29352;48.708;9.290;2023-05-16T11:24:35;15.00;15.00;15.00;;
48148;Laerm;29352;48.708;9.290;2023-05-16T11:27:02;15.00;15.00;15.00;;
48148;Laerm;29352;48.708;9.290;2023-05-16T11:29:33;15.00;15.00;15.00;;
48148;Laerm;29352;48.708;9.290;2023-05-16T11:32:02;15.00;15.00;15.00;;
48148;Laerm;29352;48.708;9.290;2023-05-16T11:34:30;15.00;15.00;15.00;;
48148;Laerm;29352;48.708;9.290;2023-05-16T11:36:56;15.00;15.00;15.00;;
48148;Laerm;29352;48.708;9.290;2023-05-16T11:39:22;15.00;15.00;15.00;;
48148;Laerm;29352;48.708;9.290;2023-05-16T11:41:52;15.00;15.00;15.00;;
48148;Laerm;29352;48.708;9.290;2023-05-16T11:44:18;15.00;15.00;15.00;;
48148;Laerm;29352;48.708;9.290;2023-05-16T11:46:44;15.00;15.00;15.00;;
48148;Laerm;29352;48.708;9.290;2023-05-16T11:49:11;15.00;15.00;15.00;;
48148;Laerm;29352;48.708;9.290;2023-05-16T11:51:41;15.00;15.00;15.00;;
48148;Laerm;29352;48.708;9.290;2023-05-16T11:54:11;15.00;15.00;15.00;;
48148;Laerm;29352;48.708;9.290;2023-05-16T11:59:06;15.00;15.00;15.00;;
48148;Laerm;29352;48.708;9.290;2023-05-16T12:01:38;15.00;15.00;15.00;;
48148;Laerm;29352;48.708;9.290;2023-05-16T12:04:08;15.00;15.00;15.00;;
48148;Laerm;29352;48.708;9.290;2023-05-16T12:06:35;15.00;15.00;15.00;;
48148;Laerm;29352;48.708;9.290;2023-05-16T12:09:00;15.00;15.00;15.00;;
48148;Laerm;29352;48.708;9.290;2023-05-16T12:11:42;15.00;15.00;15.00;;
48148;Laerm;29352;48.708;9.290;2023-05-16T12:14:11;15.00;15.00;15.00;;
48148;Laerm;29352;48.708;9.290;2023-05-16T12:16:39;15.00;15.00;15.00;;
48148;Laerm;29352;48.708;9.290;2023-05-16T12:19:08;15.00;15.00;15.00;;
48148;Laerm;29352;48.708;9.290;2023-05-16T12:21:35;15.00;15.00;15.00;;
48148;Laerm;29352;48.708;9.290;2023-05-16T12:24:02;15.00;15.00;15.00;;
48148;Laerm;29352;48.708;9.290;2023-05-16T12:26:30;15.00;15.00;15.00;;
48148;Laerm;29352;48.708;9.290;2023-05-16T12:28:59;15.00;15.00;15.00;;
48148;Laerm;29352;48.708;9.290;2023-05-16T12:31:28;15.00;15.00;15.00;;
48148;Laerm;29352;48.708;9.290;2023-05-16T12:33:58;15.00;15.00;15.00;;
48148;Laerm;29352;48.708;9.290;2023-05-16T12:36:24;15.00;15.00;15.00;;
48148;Laerm;29352;48.708;9.290;2023-05-16T12:38:52;15.00;15.00;15.00;;
48148;Laerm;29352;48.708;9.290;2023-05-16T12:43:46;15.00;15.00;15.00;;
48148;Laerm;29352;48.708;9.290;2023-05-16T12:46:12;15.00;15.00;15.00;;
48148;Laerm;29352;48.708;9.290;2023-05-16T12:48:38;15.00;15.00;15.00;;
48148;Laerm;29352;48.708;9.290;2023-05-16T12:51:18;15.00;15.00;15.00;;
48148;Laerm;29352;48.708;9.290;2023-05-16T12:53:47;15.00;15.00;15.00;;
48148;Laerm;29352;48.708;9.290;2023-05-16T12:56:14;15.00;15.00;15.00;;
48148;Laerm;29352;48.708;9.290;2023-05-16T12:58:43;15.00;15.00;15.00;;
48148;Laerm;29352;48.708;9.290;2023-05-16T13:01:08;15.00;15.00;15.00;;
48148;Laerm;29352;48.708;9.290;2023-05-16T13:03:34;15.00;15.00;15.00;;
48148;Laerm;29352;48.708;9.290;2023-05-16T13:06:01;15.00;15.00;15.00;;
48148;Laerm;29352;48.708;9.290;2023-05-16T13:08:28;15.00;15.00;15.00;;
48148;Laerm;29352;48.708;9.290;2023-05-16T13:10:54;15.00;15.00;15.00;;
48148;Laerm;29352;48.708;9.290;2023-05-16T13:13:19;15.00;15.00;15.00;;
48148;Laerm;29352;48.708;9.290;2023-05-16T13:15:45;15.00;15.00;15.00;;
48148;Laerm;29352;48.708;9.290;2023-05-16T13:18:13;15.00;15.00;15.00;;
48148;Laerm;29352;48.708;9.290;2023-05-16T13:20:38;15.00;15.00;15.00;;
48148;Laerm;29352;48.708;9.290;2023-05-16T13:23:04;15.00;15.00;15.00;;
48148;Laerm;29352;48.708;9.290;2023-05-16T13:25:30;15.00;15.00;15.00;;
48148;Laerm;29352;48.708;9.290;2023-05-16T13:27:56;15.00;15.00;15.00;;
48148;Laerm;29352;48.708;9.290;2023-05-16T13:30:21;15.00;15.00;15.00;;
48148;Laerm;29352;48.708;9.290;2023-05-16T13:32:47;15.00;15.00;15.00;;
48148;Laerm;29352;48.708;9.290;2023-05-16T13:35:13;15.00;15.00;15.00;;
48148;Laerm;29352;48.708;9.290;2023-05-16T13:37:38;15.00;15.00;15.00;;
48148;Laerm;29352;48.708;9.290;2023-05-16T13:40:06;15.00;15.00;15.00;;
48148;Laerm;29352;48.708;9.290;2023-05-16T13:42:36;15.00;15.00;15.00;;
48148;Laerm;29352;48.708;9.290;2023-05-16T13:45:03;15.00;15.00;15.00;;
48148;Laerm;29352;48.708;9.290;2023-05-16T13:47:29;15.00;15.00;15.00;;
48148;Laerm;29352;48.708;9.290;2023-05-16T13:49:54;15.00;15.00;15.00;;
48148;Laerm;29352;48.708;9.290;2023-05-16T13:52:20;15.00;15.00;15.00;;
48148;Laerm;29352;48.708;9.290;2023-05-16T13:54:45;15.00;15.00;15.00;;
48148;Laerm;29352;48.708;9.290;2023-05-16T13:57:11;15.00;15.00;15.00;;
48148;Laerm;29352;48.708;9.290;2023-05-16T13:59:37;15.00;15.00;15.00;;
48148;Laerm;29352;48.708;9.290;2023-05-16T14:02:03;15.00;15.00;15.00;;
48148;Laerm;29352;48.708;9.290;2023-05-16T14:04:28;15.00;15.00;15.00;;
48148;Laerm;29352;48.708;9.290;2023-05-16T14:06:54;15.00;15.00;15.00;;
48148;Laerm;29352;48.708;9.290;2023-05-16T14:09:20;15.00;15.00;15.00;;
48148;Laerm;29352;48.708;9.290;2023-05-16T14:11:46;15.00;15.00;15.00;;
48148;Laerm;29352;48.708;9.290;2023-05-16T14:14:11;15.00;15.00;15.00;;
48148;Laerm;29352;48.708;9.290;2023-05-16T14:16:36;15.00;15.00;15.00;;
48148;Laerm;29352;48.708;9.290;2023-05-16T14:19:02;15.00;15.00;15.00;;
48148;Laerm;29352;48.708;9.290;2023-05-16T14:21:27;15.00;15.00;15.00;;
48148;Laerm;29352;48.708;9.290;2023-05-16T14:23:53;15.00;15.00;15.00;;
48148;Laerm;29352;48.708;9.290;2023-05-16T14:26:19;15.00;15.00;15.00;;
48148;Laerm;29352;48.708;9.290;2023-05-16T14:28:49;15.00;15.00;15.00;;